Time;durP1;ratioP1;P1;durP2;ratioP2;P2;SDS_P1;SDS_P2;PMS_P1;PMS_P2;Temp;Humidity;BMP_temperature;BMP_pressure;BME280_temperature;BME280_humidity;BME280_pressure;Samples;Min_cycle;Max_cycle;Signal;HPM_P1;HPM_P2
2022/06/26 00:00:14;;;;;;;;;;;;;;;16.44;81.09;97890.23;1676276;84;20193;-87
2022/06/26 00:02:42;;;;;;;;;;;;;;;16.33;82.34;97890.55;1675586;84;20448;-88
2022/06/26 00:05:10;;;;;;;;;;;;;;;16.26;84.42;97891.58;1675524;84;20187;-88
2022/06/26 00:07:35;;;;;;;;;;;;;;;16.24;82.68;97897.94;1697400;83;20189;-83
2022/06/26 00:10:01;;;;;;;;;;;;;;;16.16;87.97;97897.35;1697667;83;21085;-83
2022/06/26 00:12:27;;;;;;;;;;;;;;;16.15;88.84;97894.91;1676629;84;21180;-84
2022/06/26 00:14:53;;;;;;;;;;;;;;;16.14;88.39;97896.05;1686710;84;20304;-83
2022/06/26 00:17:18;;;;;;;;;;;;;;;16.12;88.46;97905.13;1691119;83;20224;-88
2022/06/26 00:19:44;;;;;;;;;;;;;;;16.11;87.51;97906.25;1696102;84;20247;-87
2022/06/26 00:22:10;;;;;;;;;;;;;;;16.10;87.38;97902.72;1693530;83;21135;-88
2022/06/26 00:24:36;;;;;;;;;;;;;;;16.07;88.76;97910.20;1697617;83;20235;-83
2022/06/26 00:27:06;;;;;;;;;;;;;;;16.04;87.17;97909.45;1692700;84;20320;-88
2022/06/26 00:29:32;;;;;;;;;;;;;;;16.01;85.95;97912.27;1686726;84;20167;-88
2022/06/26 00:31:59;;;;;;;;;;;;;;;15.88;89.94;97915.11;1697609;83;20145;-83
2022/06/26 00:34:25;;;;;;;;;;;;;;;15.86;89.69;97913.26;1697960;84;21069;-87
2022/06/26 00:36:50;;;;;;;;;;;;;;;15.86;88.34;97922.81;1693638;83;20741;-83
2022/06/26 00:39:16;;;;;;;;;;;;;;;15.83;87.57;97920.17;1686033;85;20196;-88
2022/06/26 00:41:42;;;;;;;;;;;;;;;15.74;90.15;97926.97;1688214;84;20396;-83
2022/06/26 00:44:18;;;;;;;;;;;;;;;15.73;90.18;97925.92;1666485;86;20263;-87
2022/06/26 00:46:44;;;;;;;;;;;;;;;15.71;90.69;97925.41;1677082;83;21075;-88
2022/06/26 00:49:10;;;;;;;;;;;;;;;15.71;86.81;97930.31;1697724;83;20266;-88
2022/06/26 00:51:37;;;;;;;;;;;;;;;15.65;89.29;97926.13;1697612;84;20193;-87
2022/06/26 00:54:03;;;;;;;;;;;;;;;15.63;90.18;97928.91;1697743;84;20305;-88
2022/06/26 00:56:29;;;;;;;;;;;;;;;15.56;89.98;97927.98;1698427;84;20190;-88
2022/06/26 00:58:55;;;;;;;;;;;;;;;15.53;89.94;97921.77;1697510;84;21182;-83
2022/06/26 01:01:20;;;;;;;;;;;;;;;15.51;88.76;97926.73;1695988;84;20172;-83
2022/06/26 01:03:46;;;;;;;;;;;;;;;15.48;90.23;97926.81;1685788;85;20301;-87
2022/06/26 01:06:12;;;;;;;;;;;;;;;15.42;91.32;97929.42;1693731;84;20619;-88
2022/06/26 01:08:38;;;;;;;;;;;;;;;15.42;91.43;97929.42;1685751;84;20194;-88
2022/06/26 01:11:17;;;;;;;;;;;;;;;15.42;91.29;97931.35;1693964;84;21035;-83
2022/06/26 01:13:34;;;;;;;;;;;;;;;15.39;90.12;97927.89;1694961;84;20450;-87
2022/06/26 01:15:59;;;;;;;;;;;;;;;15.38;90.40;97930.35;1695393;84;20241;-87
2022/06/26 01:18:25;;;;;;;;;;;;;;;15.33;91.55;97931.30;1697091;84;20177;-87
2022/06/26 01:20:54;;;;;;;;;;;;;;;15.28;91.40;97936.08;1685026;84;20184;-83
2022/06/26 01:23:19;;;;;;;;;;;;;;;15.24;91.29;97935.91;1686144;84;21933;-83
2022/06/26 01:25:47;;;;;;;;;;;;;;;15.21;91.53;97940.61;1692418;84;20199;-87
2022/06/26 01:28:13;;;;;;;;;;;;;;;15.17;91.28;97936.34;1686827;83;20195;-83
2022/06/26 01:30:39;;;;;;;;;;;;;;;15.17;92.18;97939.08;1664294;84;20694;-84
2022/06/26 01:33:06;;;;;;;;;;;;;;;15.21;90.82;97940.61;1697372;84;20174;-87
2022/06/26 01:35:32;;;;;;;;;;;;;;;15.22;90.50;97938.16;1697649;84;21104;-83
2022/06/26 01:38:14;;;;;;;;;;;;;;;15.21;92.39;97940.08;1697336;83;20199;-82
2022/06/26 01:40:39;;;;;;;;;;;;;;;15.23;91.92;97943.86;1685001;83;20181;-84
2022/06/26 01:43:05;;;;;;;;;;;;;;;15.22;91.86;97942.25;1697282;83;20647;-83
2022/06/26 01:45:31;;;;;;;;;;;;;;;15.17;92.45;97945.09;1697576;84;20215;-88
2022/06/26 01:47:57;;;;;;;;;;;;;;;15.13;91.12;97945.48;1695118;83;21040;-83
2022/06/26 01:50:22;;;;;;;;;;;;;;;15.07;91.66;97942.06;1697472;84;20177;-83
2022/06/26 01:52:48;;;;;;;;;;;;;;;15.03;92.80;97946.52;1697855;84;20216;-87
2022/06/26 01:55:14;;;;;;;;;;;;;;;15.00;93.04;97943.05;1695421;84;20415;-84
2022/06/26 01:57:40;;;;;;;;;;;;;;;15.00;93.04;97951.23;1691275;83;20167;-87
2022/06/26 02:00:06;;;;;;;;;;;;;;;15.00;93.56;97952.59;1697584;84;21074;-83
2022/06/26 02:02:32;;;;;;;;;;;;;;;15.01;93.09;97954.77;1697407;83;20185;-87
2022/06/26 02:04:59;;;;;;;;;;;;;;;14.98;92.27;97948.58;1697583;84;20188;-87
2022/06/26 02:07:25;;;;;;;;;;;;;;;14.97;92.58;97944.23;1697594;83;20376;-87
2022/06/26 02:15:19;;;;;;;;;;;;;;;14.94;92.35;97949.73;1697438;84;20210;-83
2022/06/26 02:17:45;;;;;;;;;;;;;;;14.86;92.54;97943.66;1697600;83;20283;-83
2022/06/26 02:20:12;;;;;;;;;;;;;;;14.80;92.82;97947.64;1689812;84;20332;-83
2022/06/26 02:22:38;;;;;;;;;;;;;;;14.76;93.03;97941.98;1693235;83;20164;-87
2022/06/26 02:25:06;;;;;;;;;;;;;;;14.73;92.72;97941.23;1697778;84;21091;-83
2022/06/26 02:27:32;;;;;;;;;;;;;;;14.71;91.37;97942.67;1690077;84;20163;-87
2022/06/26 02:29:57;;;;;;;;;;;;;;;14.62;89.67;97948.05;1688669;84;20274;-82
2022/06/26 02:32:23;;;;;;;;;;;;;;;14.54;91.44;97944.13;1690866;83;20182;-87
2022/06/26 02:34:49;;;;;;;;;;;;;;;14.47;92.52;97950.55;1687184;84;20499;-84
2022/06/26 02:37:15;;;;;;;;;;;;;;;14.46;93.45;97956.32;1697708;83;21047;-87
2022/06/26 02:39:40;;;;;;;;;;;;;;;14.44;94.29;97955.23;1697728;83;20179;-83
2022/06/26 02:42:06;;;;;;;;;;;;;;;14.45;94.53;97949.22;1691365;84;20800;-87
2022/06/26 02:44:32;;;;;;;;;;;;;;;14.47;92.82;97959.30;1695975;84;20509;-87
2022/06/26 02:46:58;;;;;;;;;;;;;;;14.45;93.47;97957.41;1694470;83;20172;-82
2022/06/26 02:49:23;;;;;;;;;;;;;;;14.42;93.96;97968.34;1697715;83;21123;-84
2022/06/26 02:51:49;;;;;;;;;;;;;;;14.38;94.91;97970.89;1682579;84;20339;-87
2022/06/26 02:54:15;;;;;;;;;;;;;;;14.37;95.40;97967.91;1665961;86;20232;-84
2022/06/26 02:56:41;;;;;;;;;;;;;;;14.38;93.45;97970.89;1695600;84;20775;-87
2022/06/26 02:59:07;;;;;;;;;;;;;;;14.33;94.33;97970.98;1697399;84;20827;-82
2022/06/26 03:01:32;;;;;;;;;;;;;;;14.28;93.59;97972.47;1691696;84;20591;-87
2022/06/26 03:03:58;;;;;;;;;;;;;;;14.25;94.26;97977.15;1697378;84;20202;-87
2022/06/26 03:06:24;;;;;;;;;;;;;;;14.24;94.04;97977.45;1697333;84;20227;-83
2022/06/26 03:08:50;;;;;;;;;;;;;;;14.25;93.06;97974.98;1697361;83;20180;-88
2022/06/26 03:11:16;;;;;;;;;;;;;;;14.27;93.76;97974.11;1697611;83;20162;-83
2022/06/26 03:13:41;;;;;;;;;;;;;;;14.29;94.59;97985.53;1697336;84;21181;-87
2022/06/26 03:16:07;;;;;;;;;;;;;;;14.30;94.12;97976.25;1697277;84;20200;-84
2022/06/26 03:18:33;;;;;;;;;;;;;;;14.30;93.09;97978.41;1697374;84;20193;-88
2022/06/26 03:20:59;;;;;;;;;;;;;;;14.30;93.06;97974.33;1697607;84;20434;-83
2022/06/26 03:24:07;;;;;;;;;;;;;;;14.32;92.35;97980.83;1685760;83;20730;-88
2022/06/26 03:25:55;;;;;;;;;;;;;;;14.30;92.75;97979.78;1690285;84;21931;-88
2022/06/26 03:28:21;;;;;;;;;;;;;;;14.33;93.11;97985.97;1686098;83;20186;-84
2022/06/26 03:30:49;;;;;;;;;;;;;;;14.42;93.33;97986.62;1692477;84;20200;-84
2022/06/26 03:33:14;;;;;;;;;;;;;;;14.43;94.14;97996.41;1668745;84;20559;-87
2022/06/26 03:35:40;;;;;;;;;;;;;;;14.53;92.73;97989.42;1670027;84;20204;-87
2022/06/26 03:38:06;;;;;;;;;;;;;;;14.61;92.94;97994.13;1697429;83;21135;-87
2022/06/26 03:40:31;;;;;;;;;;;;;;;14.67;92.68;97997.81;1697475;83;20196;-83
2022/06/26 03:42:57;;;;;;;;;;;;;;;14.74;93.39;97996.59;1697304;84;20291;-83
2022/06/26 03:45:23;;;;;;;;;;;;;;;14.85;92.86;97994.67;1694150;84;20547;-87
2022/06/26 03:47:49;;;;;;;;;;;;;;;14.96;92.18;97998.00;1688512;84;20265;-88
2022/06/26 03:50:14;;;;;;;;;;;;;;;15.04;91.66;97998.63;1687685;84;21864;-88
2022/06/26 03:52:40;;;;;;;;;;;;;;;15.13;91.96;98000.06;1689342;83;20279;-87
2022/06/26 03:55:07;;;;;;;;;;;;;;;15.23;91.70;98001.98;1687861;84;20305;-87
2022/06/26 03:57:32;;;;;;;;;;;;;;;15.33;91.26;97998.75;1685011;84;20629;-88
2022/06/26 03:59:58;;;;;;;;;;;;;;;15.43;90.66;98005.31;1683365;84;20193;-88
2022/06/26 04:02:24;;;;;;;;;;;;;;;15.47;90.48;98004.95;1689871;84;22022;-83
2022/06/26 04:04:50;;;;;;;;;;;;;;;15.49;90.00;98008.17;1695263;84;20355;-83
2022/06/26 04:07:15;;;;;;;;;;;;;;;15.55;89.94;97997.34;1670370;84;20269;-87
2022/06/26 04:09:41;;;;;;;;;;;;;;;15.62;89.65;97995.02;1696626;84;20218;-83
2022/06/26 04:12:07;;;;;;;;;;;;;;;15.71;89.56;98004.62;1693344;84;20809;-83
2022/06/26 04:14:33;;;;;;;;;;;;;;;15.85;89.25;98008.08;1696933;84;21214;-83
2022/06/26 04:16:59;;;;;;;;;;;;;;;15.95;88.79;98010.53;1697329;84;20205;-87
2022/06/26 04:19:25;;;;;;;;;;;;;;;15.99;88.90;98007.43;1697240;84;20217;-83
2022/06/26 04:21:50;;;;;;;;;;;;;;;16.11;88.71;98013.66;1697551;83;20155;-88
2022/06/26 04:24:16;;;;;;;;;;;;;;;16.23;88.47;98010.31;1697224;84;20179;-83
2022/06/26 04:26:42;;;;;;;;;;;;;;;16.35;87.94;98014.06;1691454;83;21182;-83
2022/06/26 04:29:08;;;;;;;;;;;;;;;16.44;87.36;98009.98;1697401;84;20239;-88
2022/06/26 04:31:33;;;;;;;;;;;;;;;16.68;87.03;98013.66;1677683;83;21391;-88
2022/06/26 04:33:59;;;;;;;;;;;;;;;16.82;85.37;98015.70;1694177;84;20444;-83
2022/06/26 04:36:25;;;;;;;;;;;;;;;16.91;85.03;98012.41;1667668;84;20480;-88
2022/06/26 04:38:51;;;;;;;;;;;;;;;17.00;85.69;98008.88;1697290;84;21078;-84
2022/06/26 04:41:31;;;;;;;;;;;;;;;17.17;85.85;98007.50;1692640;84;20193;-83
2022/06/26 04:43:58;;;;;;;;;;;;;;;17.33;84.80;98005.89;1697456;84;20188;-88
2022/06/26 04:46:23;;;;;;;;;;;;;;;17.56;83.37;98009.81;1697579;84;20177;-87
2022/06/26 04:48:49;;;;;;;;;;;;;;;17.70;82.52;98009.90;1697369;83;20235;-84
2022/06/26 04:51:15;;;;;;;;;;;;;;;17.80;82.83;98007.94;1705285;83;21071;-83
2022/06/26 04:53:41;;;;;;;;;;;;;;;17.96;82.72;98013.13;1697250;84;20417;-88
2022/06/26 04:56:06;;;;;;;;;;;;;;;18.20;81.84;98008.41;1697502;84;20227;-84
2022/06/26 04:58:32;;;;;;;;;;;;;;;18.36;81.57;98004.55;1697285;83;20235;-84
2022/06/26 05:00:58;;;;;;;;;;;;;;;18.52;80.16;98002.84;1697577;83;20184;-88
2022/06/26 05:03:24;;;;;;;;;;;;;;;18.59;79.87;97998.45;1685784;83;21137;-88
2022/06/26 05:05:49;;;;;;;;;;;;;;;18.71;79.09;97993.62;1692658;84;20203;-83
2022/06/26 05:08:15;;;;;;;;;;;;;;;18.86;79.64;98001.28;1697221;83;20294;-89
2022/06/26 05:10:41;;;;;;;;;;;;;;;19.02;79.57;98000.69;1697129;83;20438;-88
2022/06/26 05:13:06;;;;;;;;;;;;;;;19.23;79.18;98002.03;1669085;83;20196;-84
2022/06/26 05:15:32;;;;;;;;;;;;;;;19.38;77.98;98000.84;1694099;84;21067;-84
2022/06/26 05:17:58;;;;;;;;;;;;;;;19.56;77.85;98000.13;1696546;83;20195;-89
2022/06/26 05:20:24;;;;;;;;;;;;;;;19.78;77.48;98003.07;1697789;83;20197;-89
2022/06/26 05:22:49;;;;;;;;;;;;;;;19.79;75.47;98003.30;1691952;83;20144;-84
2022/06/26 05:25:15;;;;;;;;;;;;;;;19.87;75.63;98000.22;1688652;84;20359;-84
2022/06/26 05:27:41;;;;;;;;;;;;;;;19.86;75.17;97998.63;1672648;84;21094;-83
2022/06/26 05:30:07;;;;;;;;;;;;;;;19.90;74.76;97998.95;1675282;84;20201;-84
2022/06/26 05:32:33;;;;;;;;;;;;;;;20.03;74.85;98004.49;1697688;84;20446;-89
2022/06/26 05:34:59;;;;;;;;;;;;;;;20.14;74.37;98002.89;1697396;84;20243;-88
2022/06/26 05:37:24;;;;;;;;;;;;;;;20.37;75.11;98010.94;1695293;83;20261;-86
2022/06/26 05:39:50;;;;;;;;;;;;;;;20.51;73.66;98009.25;1697533;84;21177;-84
2022/06/26 05:42:16;;;;;;;;;;;;;;;20.77;74.69;98009.69;1697651;84;20177;-88
2022/06/26 05:44:42;;;;;;;;;;;;;;;20.93;72.90;98004.23;1696916;84;20189;-89
2022/06/26 05:47:07;;;;;;;;;;;;;;;21.06;72.55;98005.82;1693501;84;20173;-89
2022/06/26 05:49:33;;;;;;;;;;;;;;;21.24;72.01;98009.67;1695512;84;20170;-89
2022/06/26 05:51:59;;;;;;;;;;;;;;;21.34;71.33;98011.37;1683943;84;21884;-88
2022/06/26 05:54:25;;;;;;;;;;;;;;;21.34;70.35;98009.20;1697204;84;20196;-84
2022/06/26 05:56:51;;;;;;;;;;;;;;;21.32;70.58;98018.40;1695984;83;20176;-89
2022/06/26 05:59:17;;;;;;;;;;;;;;;21.32;70.43;98017.02;1697487;83;20167;-83
2022/06/26 06:01:43;;;;;;;;;;;;;;;21.34;69.66;98017.47;1697712;83;20152;-84
2022/06/26 06:04:09;;;;;;;;;;;;;;;21.32;70.42;98024.70;1697602;84;21145;-89
2022/06/26 06:06:34;;;;;;;;;;;;;;;21.49;69.85;98020.86;1697394;84;20173;-89
2022/06/26 06:09:00;;;;;;;;;;;;;;;21.58;70.13;98022.08;1697459;84;20224;-83
2022/06/26 06:11:26;;;;;;;;;;;;;;;21.71;70.10;98012.61;1695277;84;20161;-89
2022/06/26 06:13:52;;;;;;;;;;;;;;;21.87;70.01;98023.06;1697341;84;20157;-89
2022/06/26 06:16:18;;;;;;;;;;;;;;;22.01;69.05;98012.19;1697365;84;21175;-89
2022/06/26 06:18:43;;;;;;;;;;;;;;;22.08;69.07;98022.06;1697332;83;20192;-84
2022/06/26 06:21:09;;;;;;;;;;;;;;;22.18;68.33;98027.05;1697158;84;20271;-83
2022/06/26 06:23:35;;;;;;;;;;;;;;;22.12;68.44;98025.70;1685707;83;20674;-89
2022/06/26 06:26:01;;;;;;;;;;;;;;;22.16;69.20;98021.89;1693752;84;20838;-89
2022/06/26 06:28:26;;;;;;;;;;;;;;;22.36;68.36;98023.34;1697251;83;21888;-89
2022/06/26 06:30:52;;;;;;;;;;;;;;;22.53;67.92;98028.50;1684864;83;20323;-89
2022/06/26 06:33:18;;;;;;;;;;;;;;;22.68;67.17;98018.02;1697309;83;20239;-90
2022/06/26 06:35:43;;;;;;;;;;;;;;;22.72;66.59;98023.03;1684854;84;20236;-89
2022/06/26 06:38:09;;;;;;;;;;;;;;;22.77;66.52;98025.53;1697465;83;20187;-84
2022/06/26 06:40:35;;;;;;;;;;;;;;;22.89;66.71;98019.10;1697362;83;21174;-89
2022/06/26 06:43:01;;;;;;;;;;;;;;;23.18;67.66;98023.89;1697305;83;20175;-84
2022/06/26 06:45:27;;;;;;;;;;;;;;;23.43;64.66;98022.44;1685301;84;20200;-89
2022/06/26 06:47:52;;;;;;;;;;;;;;;23.69;65.81;98023.18;1671728;84;20396;-89
2022/06/26 06:50:18;;;;;;;;;;;;;;;23.87;65.50;98022.93;1668346;84;20267;-90
2022/06/26 06:52:44;;;;;;;;;;;;;;;24.06;64.37;98024.84;1694588;83;21173;-90
2022/06/26 06:55:10;;;;;;;;;;;;;;;24.23;62.98;98015.25;1696900;83;20280;-84
2022/06/26 06:57:35;;;;;;;;;;;;;;;24.44;63.20;98019.80;1697603;84;20213;-90
2022/06/26 07:00:01;;;;;;;;;;;;;;;24.61;63.62;98014.34;1697422;84;20168;-88
2022/06/26 07:02:27;;;;;;;;;;;;;;;24.83;62.99;98020.18;1697440;83;20195;-85
2022/06/26 07:04:53;;;;;;;;;;;;;;;24.96;63.28;98020.98;1697364;84;21717;-84
2022/06/26 07:07:18;;;;;;;;;;;;;;;25.16;61.83;98021.67;1668227;84;20227;-88
2022/06/26 07:09:44;;;;;;;;;;;;;;;25.13;60.75;98019.66;1693833;84;20585;-90
2022/06/26 07:12:10;;;;;;;;;;;;;;;25.09;60.95;98020.77;1687227;84;20308;-84
2022/06/26 07:14:36;;;;;;;;;;;;;;;25.29;61.92;98028.59;1697434;84;20148;-84
2022/06/26 07:17:01;;;;;;;;;;;;;;;25.59;61.91;98025.77;1684806;84;21105;-83
2022/06/26 07:19:27;;;;;;;;;;;;;;;25.79;61.25;98024.23;1668210;84;20239;-89
2022/06/26 07:21:53;;;;;;;;;;;;;;;25.98;60.92;98024.05;1676776;83;20279;-84
2022/06/26 07:24:19;;;;;;;;;;;;;;;26.20;59.12;98011.75;1666590;86;20172;-90
2022/06/26 07:26:44;;;;;;;;;;;;;;;26.54;59.44;98018.02;1696923;83;20168;-90
2022/06/26 07:29:10;;;;;;;;;;;;;;;26.66;58.04;98014.36;1697465;83;21091;-89
2022/06/26 07:31:36;;;;;;;;;;;;;;;26.85;57.26;98009.70;1697434;83;20207;-84
2022/06/26 07:34:15;;;;;;;;;;;;;;;27.07;58.05;98017.59;1697502;83;20798;-89
2022/06/26 07:36:43;;;;;;;;;;;;;;;27.09;55.51;98020.21;1688766;84;20185;-90
2022/06/26 07:39:15;;;;;;;;;;;;;;;27.23;55.02;98018.87;1666317;86;20366;-85
2022/06/26 07:41:42;;;;;;;;;;;;;;;27.47;55.30;98015.21;1695508;84;21864;-84
2022/06/26 07:44:07;;;;;;;;;;;;;;;27.58;55.15;98016.63;1697326;84;20187;-84
2022/06/26 07:46:34;;;;;;;;;;;;;;;27.72;55.44;98016.12;1693189;83;20283;-84
2022/06/26 07:49:01;;;;;;;;;;;;;;;28.04;54.65;98014.02;1677454;84;20158;-85
2022/06/26 07:51:27;;;;;;;;;;;;;;;28.36;55.19;98014.84;1696616;84;20172;-90
2022/06/26 07:53:53;;;;;;;;;;;;;;;28.57;54.74;98009.09;1697297;83;21078;-84
2022/06/26 07:56:19;;;;;;;;;;;;;;;28.71;54.21;98009.65;1697236;84;20834;-90
2022/06/26 07:58:44;;;;;;;;;;;;;;;28.91;53.04;98003.29;1697336;83;20222;-85
2022/06/26 08:01:10;;;;;;;;;;;;;;;29.30;52.11;98007.14;1697392;84;20429;-85
2022/06/26 08:03:37;;;;;;;;;;;;;;;29.66;47.97;98003.66;1697395;84;20312;-90
2022/06/26 08:06:02;;;;;;;;;;;;;;;30.14;50.20;98005.16;1692522;84;21840;-90
2022/06/26 08:08:28;;;;;;;;;;;;;;;30.64;48.09;97999.77;1685647;85;20206;-85
2022/06/26 08:10:54;;;;;;;;;;;;;;;31.01;46.33;98006.80;1692872;84;20185;-90
2022/06/26 08:13:20;;;;;;;;;;;;;;;31.09;43.90;97997.73;1697039;83;20343;-91
2022/06/26 08:15:46;;;;;;;;;;;;;;;31.57;44.09;97996.18;1685143;84;20225;-85
2022/06/26 08:18:11;;;;;;;;;;;;;;;31.54;41.83;97992.83;1697408;84;21074;-84
2022/06/26 08:20:37;;;;;;;;;;;;;;;32.16;45.07;97995.77;1696213;84;20197;-91
2022/06/26 08:23:03;;;;;;;;;;;;;;;32.27;42.09;97996.37;1688565;84;20268;-90
2022/06/26 08:25:29;;;;;;;;;;;;;;;32.53;41.14;97996.79;1695003;84;20658;-91
2022/06/26 08:27:54;;;;;;;;;;;;;;;32.67;41.02;97995.15;1697453;84;20808;-90
2022/06/26 08:30:20;;;;;;;;;;;;;;;33.19;40.82;97993.81;1697238;84;21803;-86
2022/06/26 08:32:46;;;;;;;;;;;;;;;33.23;37.04;97995.92;1675190;84;20211;-85
2022/06/26 08:35:12;;;;;;;;;;;;;;;33.69;39.31;97992.19;1648271;84;20293;-90
2022/06/26 08:37:38;;;;;;;;;;;;;;;33.81;37.52;97989.31;1690784;83;20185;-85
2022/06/26 08:40:05;;;;;;;;;;;;;;;34.06;38.68;97992.38;1697461;84;20180;-86
2022/06/26 08:42:31;;;;;;;;;;;;;;;34.32;36.61;98002.41;1697454;83;21135;-85
2022/06/26 08:44:57;;;;;;;;;;;;;;;34.39;33.93;97998.84;1697495;84;20145;-91
2022/06/26 08:47:24;;;;;;;;;;;;;;;34.75;34.01;97998.71;1697622;83;20145;-85
2022/06/26 08:49:51;;;;;;;;;;;;;;;35.01;35.37;98006.69;1697591;84;20195;-90
2022/06/26 08:52:18;;;;;;;;;;;;;;;34.64;31.84;98001.02;1697878;83;20141;-91
2022/06/26 08:54:44;;;;;;;;;;;;;;;35.66;34.82;97995.83;1699969;81;21069;-91
2022/06/26 08:57:10;;;;;;;;;;;;;;;35.97;28.52;97999.54;1697812;83;20182;-91
2022/06/26 08:59:35;;;;;;;;;;;;;;;35.23;26.87;97996.27;1696865;84;20225;-91
2022/06/26 09:02:01;;;;;;;;;;;;;;;35.06;26.31;98001.16;1691183;84;20479;-91
2022/06/26 09:04:27;;;;;;;;;;;;;;;35.30;25.83;97995.44;1697581;84;20224;-91
2022/06/26 09:06:53;;;;;;;;;;;;;;;36.03;28.32;98000.56;1693015;83;21107;-86
2022/06/26 09:09:27;;;;;;;;;;;;;;;36.08;27.26;97999.39;1697743;84;20181;-85
2022/06/26 09:11:54;;;;;;;;;;;;;;;35.92;25.77;98003.72;1684234;84;20208;-86
2022/06/26 09:14:20;;;;;;;;;;;;;;;36.22;25.18;98001.56;1697649;82;20465;-91
2022/06/26 09:16:47;;;;;;;;;;;;;;;36.87;26.87;97993.38;1697665;83;20487;-91
2022/06/26 09:19:16;;;;;;;;;;;;;;;36.80;23.89;97995.00;1697714;84;21801;-85
2022/06/26 09:21:42;;;;;;;;;;;;;;;36.88;25.35;98002.64;1688028;84;20150;-86
2022/06/26 09:24:10;;;;;;;;;;;;;;;37.29;26.71;98001.56;1666729;86;20247;-92
2022/06/26 09:26:38;;;;;;;;;;;;;;;37.02;24.23;97996.50;1691286;84;20196;-91
2022/06/26 09:29:14;;;;;;;;;;;;;;;37.92;23.30;97999.01;1686301;84;20533;-91
2022/06/26 09:31:40;;;;;;;;;;;;;;;36.68;24.75;98003.69;1693909;84;21271;-86
2022/06/26 09:34:06;;;;;;;;;;;;;;;38.04;23.78;98005.83;1685815;84;20300;-92
2022/06/26 09:36:32;;;;;;;;;;;;;;;37.69;22.49;97998.06;1693941;84;20497;-86
2022/06/26 09:38:58;;;;;;;;;;;;;;;38.22;21.58;98001.66;1697823;84;20172;-91
2022/06/26 09:41:31;;;;;;;;;;;;;;;38.89;21.69;98005.16;1695696;83;20273;-86
2022/06/26 09:43:57;;;;;;;;;;;;;;;37.85;20.88;98006.34;1685887;85;21779;-91
2022/06/26 09:46:30;;;;;;;;;;;;;;;39.19;20.72;97998.42;1692771;84;20914;-86
2022/06/26 09:48:58;;;;;;;;;;;;;;;39.15;20.37;98000.64;1697475;84;20207;-91
2022/06/26 09:51:24;;;;;;;;;;;;;;;37.65;20.62;97998.21;1696155;84;20168;-86
2022/06/26 09:53:50;;;;;;;;;;;;;;;38.41;20.64;98000.33;1697512;83;20267;-91
2022/06/26 09:56:16;;;;;;;;;;;;;;;38.31;20.68;97998.89;1684195;83;21958;-86
2022/06/26 09:58:42;;;;;;;;;;;;;;;38.54;20.79;98003.20;1666214;84;20198;-92
2022/06/26 10:06:37;;;;;;;;;;;;;;;39.39;18.68;98000.75;1696307;84;20337;-86
2022/06/26 10:09:04;;;;;;;;;;;;;;;39.02;19.02;98001.38;1697646;84;21084;-86
2022/06/26 10:11:31;;;;;;;;;;;;;;;39.63;18.56;97999.48;1697364;84;20174;-91
2022/06/26 10:13:59;;;;;;;;;;;;;;;39.74;19.09;97999.16;1697436;84;20174;-91
2022/06/26 10:16:34;;;;;;;;;;;;;;;40.19;17.56;97993.81;1694690;84;20316;-86
2022/06/26 10:19:39;;;;;;;;;;;;;;;37.94;19.60;97996.50;1686033;85;20178;-91
2022/06/26 10:22:05;;;;;;;;;;;;;;;39.71;18.00;97994.42;1693356;84;21126;-86
2022/06/26 10:24:32;;;;;;;;;;;;;;;38.25;19.10;97991.47;1696224;84;20162;-86
2022/06/26 10:27:01;;;;;;;;;;;;;;;39.24;19.81;97990.72;1697376;84;20139;-86
2022/06/26 10:29:36;;;;;;;;;;;;;;;39.65;18.09;97991.28;1697707;84;20182;-86
2022/06/26 10:32:03;;;;;;;;;;;;;;;39.84;17.87;97987.15;1692868;84;20479;-85
2022/06/26 10:34:28;;;;;;;;;;;;;;;40.22;18.17;97986.53;1658279;84;21071;-86
2022/06/26 10:36:58;;;;;;;;;;;;;;;39.89;17.82;97979.39;1696310;84;20744;-91
2022/06/26 10:39:42;;;;;;;;;;;;;;;41.22;17.89;97983.53;1667823;84;20171;-86
2022/06/26 10:45:11;;;;;;;;;;;;;;;41.10;17.49;97987.55;1695443;84;20456;-86
2022/06/26 10:47:49;;;;;;;;;;;;;;;39.49;17.32;97992.41;1697663;83;21148;-86
2022/06/26 10:50:28;;;;;;;;;;;;;;;40.58;17.23;97980.52;1687396;84;20165;-86
2022/06/26 10:52:55;;;;;;;;;;;;;;;40.31;16.95;97986.48;1696746;84;20185;-91
2022/06/26 10:55:20;;;;;;;;;;;;;;;40.91;16.57;97983.30;1665149;84;20133;-91
2022/06/26 10:57:49;;;;;;;;;;;;;;;40.56;17.31;97981.00;1698388;82;20293;-86
2022/06/26 11:00:16;;;;;;;;;;;;;;;40.57;17.02;97974.05;1697716;84;21260;-91
2022/06/26 11:02:46;;;;;;;;;;;;;;;40.45;17.23;97982.82;1676222;84;20435;-91
2022/06/26 11:05:12;;;;;;;;;;;;;;;40.86;16.78;97973.41;1676586;84;20182;-87
2022/06/26 11:07:49;;;;;;;;;;;;;;;40.58;16.59;97977.67;1697518;83;20157;-91
2022/06/26 11:10:17;;;;;;;;;;;;;;;40.98;16.80;97976.47;1697341;84;20180;-86
2022/06/26 11:12:44;;;;;;;;;;;;;;;40.18;17.43;97980.89;1697549;84;21635;-91
2022/06/26 11:15:33;;;;;;;;;;;;;;;41.66;16.28;97976.47;1696802;84;20166;-86
2022/06/26 11:18:00;;;;;;;;;;;;;;;41.02;16.50;97979.89;1695609;84;20480;-91
2022/06/26 11:23:13;;;;;;;;;;;;;;;41.32;16.30;97977.93;1692361;83;20448;-91
2022/06/26 11:25:41;;;;;;;;;;;;;;;41.48;16.50;97976.67;1707770;83;21289;-91
2022/06/26 11:28:10;;;;;;;;;;;;;;;40.73;16.29;97976.31;1671632;85;20193;-91
2022/06/26 11:30:37;;;;;;;;;;;;;;;41.43;16.33;97977.48;1648682;85;20227;-86
2022/06/26 11:33:04;;;;;;;;;;;;;;;40.98;16.73;97973.63;1684660;83;20161;-85
2022/06/26 11:35:30;;;;;;;;;;;;;;;39.47;17.43;97977.91;1680669;85;20169;-91
2022/06/26 11:37:55;;;;;;;;;;;;;;;39.55;17.63;97975.53;1679863;84;21101;-92
2022/06/26 11:40:22;;;;;;;;;;;;;;;39.57;17.73;97973.84;1680112;84;20192;-91
2022/06/26 11:42:55;;;;;;;;;;;;;;;40.54;17.06;97968.56;1676861;85;20171;-86
2022/06/26 11:45:26;;;;;;;;;;;;;;;41.12;17.25;97978.56;1702893;83;20178;-91
2022/06/26 11:47:52;;;;;;;;;;;;;;;42.47;15.31;97975.95;1708168;84;20150;-86
2022/06/26 11:50:21;;;;;;;;;;;;;;;42.03;15.62;97981.74;1694383;83;21083;-91
2022/06/26 11:52:53;;;;;;;;;;;;;;;40.31;16.99;97976.55;1678856;85;20179;-86
2022/06/26 11:55:19;;;;;;;;;;;;;;;40.90;16.44;97973.22;1685587;84;20525;-91
2022/06/26 11:57:45;;;;;;;;;;;;;;;39.96;16.69;97979.69;1709819;84;20179;-86
2022/06/26 12:00:12;;;;;;;;;;;;;;;40.39;15.93;97973.36;1666514;85;20185;-91
2022/06/26 12:02:42;;;;;;;;;;;;;;;40.52;16.26;97970.48;1709950;84;21124;-87
2022/06/26 12:05:08;;;;;;;;;;;;;;;40.63;16.20;97973.40;1691481;82;20129;-91
2022/06/26 12:07:42;;;;;;;;;;;;;;;39.40;17.36;97980.46;1684526;85;20710;-91
2022/06/26 12:10:09;;;;;;;;;;;;;;;40.52;16.45;97964.02;1652612;85;20170;-86
2022/06/26 12:12:34;;;;;;;;;;;;;;;41.12;16.20;97970.05;1684506;83;20173;-92
2022/06/26 12:15:00;;;;;;;;;;;;;;;40.95;16.84;97972.55;1685066;84;21074;-90
2022/06/26 12:17:27;;;;;;;;;;;;;;;40.44;16.12;97969.90;1684448;83;20239;-91
2022/06/26 12:19:53;;;;;;;;;;;;;;;39.78;16.35;97976.92;1685262;85;20213;-86
2022/06/26 12:22:31;;;;;;;;;;;;;;;38.75;17.58;97985.17;1684758;84;20748;-86
2022/06/26 12:24:57;;;;;;;;;;;;;;;39.23;16.75;97977.81;1690806;84;20392;-86
2022/06/26 12:27:42;;;;;;;;;;;;;;;38.56;18.08;97975.20;1662753;86;21077;-91
2022/06/26 12:30:23;;;;;;;;;;;;;;;39.52;17.14;97975.08;1643459;86;20163;-91
2022/06/26 12:32:49;;;;;;;;;;;;;;;39.80;17.02;97967.30;1662476;85;20137;-86
2022/06/26 12:35:15;;;;;;;;;;;;;;;40.20;16.75;97974.88;1674829;82;20263;-91
2022/06/26 12:37:41;;;;;;;;;;;;;;;40.98;16.32;97975.83;1673738;83;20175;-86
2022/06/26 12:40:08;;;;;;;;;;;;;;;41.40;15.88;97976.27;1670623;84;21723;-91
2022/06/26 12:42:33;;;;;;;;;;;;;;;40.32;16.62;97973.86;1697978;84;20896;-92
2022/06/26 12:44:59;;;;;;;;;;;;;;;39.76;16.62;97974.57;1689257;84;20285;-91
2022/06/26 12:47:25;;;;;;;;;;;;;;;41.04;16.62;97974.53;1662259;86;20226;-92
2022/06/26 12:49:51;;;;;;;;;;;;;;;41.98;16.99;97974.06;1663247;83;20671;-86
2022/06/26 12:52:16;;;;;;;;;;;;;;;41.49;15.20;97972.55;1662784;82;21094;-92
2022/06/26 12:54:42;;;;;;;;;;;;;;;40.56;16.42;97971.70;1661032;85;20261;-91
2022/06/26 12:57:09;;;;;;;;;;;;;;;40.66;16.64;97963.91;1691628;84;20183;-86
2022/06/26 12:59:34;;;;;;;;;;;;;;;39.47;16.62;97975.86;1710071;83;20174;-91
2022/06/26 13:02:00;;;;;;;;;;;;;;;40.15;16.78;97974.11;1709813;83;20282;-91